sensor_id;sensor_type;location;lat;lon;timestamp;P1;durP1;ratioP1;P2;durP2;ratioP2
41436;SDS011;27178;49.460;10.850;2023-03-14T00:01:59;1.75;;;0.45;;
41436;SDS011;27178;49.460;10.850;2023-03-14T00:04:27;0.47;;;0.38;;
41436;SDS011;27178;49.460;10.850;2023-03-14T00:06:55;0.20;;;0.20;;
41436;SDS011;27178;49.460;10.850;2023-03-14T00:09:23;0.60;;;0.43;;
41436;SDS011;27178;49.460;10.850;2023-03-14T00:11:52;1.02;;;0.43;;
41436;SDS011;27178;49.460;10.850;2023-03-14T00:14:21;0.60;;;0.60;;
41436;SDS011;27178;49.460;10.850;2023-03-14T00:16:50;0.65;;;0.50;;
41436;SDS011;27178;49.460;10.850;2023-03-14T00:19:19;0.57;;;0.50;;
41436;SDS011;27178;49.460;10.850;2023-03-14T00:21:47;1.08;;;0.43;;
41436;SDS011;27178;49.460;10.850;2023-03-14T00:24:16;0.40;;;0.40;;
41436;SDS011;27178;49.460;10.850;2023-03-14T00:26:44;0.47;;;0.30;;
41436;SDS011;27178;49.460;10.850;2023-03-14T00:29:12;0.17;;;0.17;;
41436;SDS011;27178;49.460;10.850;2023-03-14T00:31:41;0.40;;;0.30;;
41436;SDS011;27178;49.460;10.850;2023-03-14T00:34:11;0.95;;;0.60;;
41436;SDS011;27178;49.460;10.850;2023-03-14T00:36:39;0.32;;;0.32;;
41436;SDS011;27178;49.460;10.850;2023-03-14T00:39:07;1.45;;;0.60;;
41436;SDS011;27178;49.460;10.850;2023-03-14T00:41:35;0.20;;;0.20;;
41436;SDS011;27178;49.460;10.850;2023-03-14T00:44:04;0.30;;;0.30;;
41436;SDS011;27178;49.460;10.850;2023-03-14T00:46:32;1.50;;;0.40;;
41436;SDS011;27178;49.460;10.850;2023-03-14T00:49:03;0.82;;;0.30;;
41436;SDS011;27178;49.460;10.850;2023-03-14T00:51:33;0.40;;;0.40;;
41436;SDS011;27178;49.460;10.850;2023-03-14T00:54:01;0.52;;;0.50;;
41436;SDS011;27178;49.460;10.850;2023-03-14T00:56:30;2.03;;;0.80;;
41436;SDS011;27178;49.460;10.850;2023-03-14T00:58:58;1.15;;;1.05;;
41436;SDS011;27178;49.460;10.850;2023-03-14T01:01:27;0.82;;;0.82;;
41436;SDS011;27178;49.460;10.850;2023-03-14T01:03:55;1.20;;;1.10;;
41436;SDS011;27178;49.460;10.850;2023-03-14T01:06:24;1.67;;;1.30;;
41436;SDS011;27178;49.460;10.850;2023-03-14T01:08:56;1.50;;;1.10;;
41436;SDS011;27178;49.460;10.850;2023-03-14T01:11:26;0.82;;;0.80;;
41436;SDS011;27178;49.460;10.850;2023-03-14T01:13:55;1.02;;;1.02;;
41436;SDS011;27178;49.460;10.850;2023-03-14T01:16:24;0.55;;;0.55;;
41436;SDS011;27178;49.460;10.850;2023-03-14T01:18:54;0.40;;;0.40;;
41436;SDS011;27178;49.460;10.850;2023-03-14T01:21:24;0.30;;;0.30;;
41436;SDS011;27178;49.460;10.850;2023-03-14T01:23:55;0.60;;;0.50;;
41436;SDS011;27178;49.460;10.850;2023-03-14T01:26:26;0.20;;;0.20;;
41436;SDS011;27178;49.460;10.850;2023-03-14T01:28:57;0.45;;;0.30;;
41436;SDS011;27178;49.460;10.850;2023-03-14T01:31:26;0.20;;;0.20;;
41436;SDS011;27178;49.460;10.850;2023-03-14T01:33:54;0.40;;;0.22;;
41436;SDS011;27178;49.460;10.850;2023-03-14T01:36:23;0.20;;;0.20;;
41436;SDS011;27178;49.460;10.850;2023-03-14T01:38:51;0.32;;;0.30;;
41436;SDS011;27178;49.460;10.850;2023-03-14T01:41:22;0.30;;;0.10;;
41436;SDS011;27178;49.460;10.850;2023-03-14T01:43:51;0.20;;;0.20;;
41436;SDS011;27178;49.460;10.850;2023-03-14T01:46:28;0.10;;;0.10;;
41436;SDS011;27178;49.460;10.850;2023-03-14T01:49:20;0.15;;;0.15;;
41436;SDS011;27178;49.460;10.850;2023-03-14T01:51:53;0.45;;;0.45;;
41436;SDS011;27178;49.460;10.850;2023-03-14T01:54:25;0.50;;;0.30;;
41436;SDS011;27178;49.460;10.850;2023-03-14T01:57:01;0.20;;;0.20;;
41436;SDS011;27178;49.460;10.850;2023-03-14T01:59:34;0.28;;;0.28;;
41436;SDS011;27178;49.460;10.850;2023-03-14T02:02:04;0.45;;;0.45;;
41436;SDS011;27178;49.460;10.850;2023-03-14T02:04:37;0.30;;;0.30;;
41436;SDS011;27178;49.460;10.850;2023-03-14T02:07:09;0.40;;;0.40;;
41436;SDS011;27178;49.460;10.850;2023-03-14T02:09:40;0.40;;;0.40;;
41436;SDS011;27178;49.460;10.850;2023-03-14T02:12:11;0.55;;;0.32;;
41436;SDS011;27178;49.460;10.850;2023-03-14T02:14:43;0.28;;;0.20;;
41436;SDS011;27178;49.460;10.850;2023-03-14T02:17:15;0.65;;;0.30;;
41436;SDS011;27178;49.460;10.850;2023-03-14T02:19:50;0.52;;;0.30;;
41436;SDS011;27178;49.460;10.850;2023-03-14T02:22:28;0.30;;;0.30;;
41436;SDS011;27178;49.460;10.850;2023-03-14T02:24:58;1.25;;;0.20;;
41436;SDS011;27178;49.460;10.850;2023-03-14T02:27:34;0.80;;;0.43;;
41436;SDS011;27178;49.460;10.850;2023-03-14T02:30:04;0.63;;;0.45;;
41436;SDS011;27178;49.460;10.850;2023-03-14T02:32:36;0.63;;;0.30;;
41436;SDS011;27178;49.460;10.850;2023-03-14T02:35:08;0.28;;;0.28;;
41436;SDS011;27178;49.460;10.850;2023-03-14T02:37:41;0.25;;;0.25;;
41436;SDS011;27178;49.460;10.850;2023-03-14T02:40:11;0.20;;;0.20;;
41436;SDS011;27178;49.460;10.850;2023-03-14T02:42:41;0.20;;;0.20;;
41436;SDS011;27178;49.460;10.850;2023-03-14T02:48:18;1.77;;;0.50;;
41436;SDS011;27178;49.460;10.850;2023-03-14T02:50:48;0.50;;;0.50;;
41436;SDS011;27178;49.460;10.850;2023-03-14T02:53:20;0.30;;;0.30;;
41436;SDS011;27178;49.460;10.850;2023-03-14T02:55:52;0.15;;;0.15;;
41436;SDS011;27178;49.460;10.850;2023-03-14T02:58:22;0.20;;;0.20;;
41436;SDS011;27178;49.460;10.850;2023-03-14T03:00:50;0.45;;;0.30;;
41436;SDS011;27178;49.460;10.850;2023-03-14T03:03:19;0.55;;;0.30;;
41436;SDS011;27178;49.460;10.850;2023-03-14T03:05:49;0.80;;;0.32;;
41436;SDS011;27178;49.460;10.850;2023-03-14T03:08:18;0.52;;;0.20;;
41436;SDS011;27178;49.460;10.850;2023-03-14T03:10:46;0.95;;;0.40;;
41436;SDS011;27178;49.460;10.850;2023-03-14T03:13:15;0.30;;;0.22;;
41436;SDS011;27178;49.460;10.850;2023-03-14T03:15:46;2.40;;;0.32;;
41436;SDS011;27178;49.460;10.850;2023-03-14T03:18:15;0.25;;;0.20;;
41436;SDS011;27178;49.460;10.850;2023-03-14T03:20:44;0.20;;;0.20;;
41436;SDS011;27178;49.460;10.850;2023-03-14T03:23:12;0.32;;;0.32;;
41436;SDS011;27178;49.460;10.850;2023-03-14T03:25:40;0.20;;;0.17;;
41436;SDS011;27178;49.460;10.850;2023-03-14T03:28:09;0.03;;;0.03;;
41436;SDS011;27178;49.460;10.850;2023-03-14T03:30:37;0.13;;;0.13;;
41436;SDS011;27178;49.460;10.850;2023-03-14T03:33:07;0.30;;;0.30;;
41436;SDS011;27178;49.460;10.850;2023-03-14T03:35:41;1.85;;;0.30;;
41436;SDS011;27178;49.460;10.850;2023-03-14T03:38:10;0.55;;;0.30;;
41436;SDS011;27178;49.460;10.850;2023-03-14T03:40:39;0.47;;;0.17;;
41436;SDS011;27178;49.460;10.850;2023-03-14T03:43:07;0.17;;;0.17;;
41436;SDS011;27178;49.460;10.850;2023-03-14T03:45:36;0.40;;;0.40;;
41436;SDS011;27178;49.460;10.850;2023-03-14T03:48:04;1.15;;;0.32;;
41436;SDS011;27178;49.460;10.850;2023-03-14T03:50:34;0.35;;;0.22;;
41436;SDS011;27178;49.460;10.850;2023-03-14T03:53:02;0.30;;;0.30;;
41436;SDS011;27178;49.460;10.850;2023-03-14T03:55:31;0.30;;;0.22;;
41436;SDS011;27178;49.460;10.850;2023-03-14T03:58:00;0.60;;;0.32;;
41436;SDS011;27178;49.460;10.850;2023-03-14T04:00:28;0.20;;;0.20;;
41436;SDS011;27178;49.460;10.850;2023-03-14T04:02:58;1.38;;;0.50;;
41436;SDS011;27178;49.460;10.850;2023-03-14T04:05:27;0.52;;;0.52;;
41436;SDS011;27178;49.460;10.850;2023-03-14T04:07:57;0.63;;;0.22;;
41436;SDS011;27178;49.460;10.850;2023-03-14T04:10:25;0.57;;;0.30;;
41436;SDS011;27178;49.460;10.850;2023-03-14T04:12:55;0.40;;;0.40;;
41436;SDS011;27178;49.460;10.850;2023-03-14T04:15:23;0.77;;;0.40;;
41436;SDS011;27178;49.460;10.850;2023-03-14T04:17:54;0.30;;;0.30;;
41436;SDS011;27178;49.460;10.850;2023-03-14T04:20:26;0.65;;;0.43;;
41436;SDS011;27178;49.460;10.850;2023-03-14T04:22:54;0.65;;;0.40;;
41436;SDS011;27178;49.460;10.850;2023-03-14T04:25:24;0.40;;;0.32;;
41436;SDS011;27178;49.460;10.850;2023-03-14T04:27:52;0.50;;;0.40;;
41436;SDS011;27178;49.460;10.850;2023-03-14T04:30:21;0.35;;;0.35;;
41436;SDS011;27178;49.460;10.850;2023-03-14T04:32:49;1.63;;;0.40;;
41436;SDS011;27178;49.460;10.850;2023-03-14T04:35:18;0.60;;;0.60;;
41436;SDS011;27178;49.460;10.850;2023-03-14T04:37:46;0.57;;;0.57;;
41436;SDS011;27178;49.460;10.850;2023-03-14T04:40:15;0.40;;;0.40;;
41436;SDS011;27178;49.460;10.850;2023-03-14T04:42:45;0.50;;;0.43;;
41436;SDS011;27178;49.460;10.850;2023-03-14T04:45:14;0.60;;;0.50;;
41436;SDS011;27178;49.460;10.850;2023-03-14T04:47:42;0.40;;;0.40;;
41436;SDS011;27178;49.460;10.850;2023-03-14T04:50:11;0.63;;;0.60;;
41436;SDS011;27178;49.460;10.850;2023-03-14T04:52:39;1.40;;;0.98;;
41436;SDS011;27178;49.460;10.850;2023-03-14T04:55:07;0.73;;;0.70;;
41436;SDS011;27178;49.460;10.850;2023-03-14T04:57:36;0.60;;;0.60;;
41436;SDS011;27178;49.460;10.850;2023-03-14T05:00:06;1.33;;;0.77;;
41436;SDS011;27178;49.460;10.850;2023-03-14T05:02:36;0.65;;;0.60;;
41436;SDS011;27178;49.460;10.850;2023-03-14T05:05:05;0.60;;;0.60;;
41436;SDS011;27178;49.460;10.850;2023-03-14T05:07:34;1.00;;;0.80;;
41436;SDS011;27178;49.460;10.850;2023-03-14T05:10:02;1.05;;;0.50;;
41436;SDS011;27178;49.460;10.850;2023-03-14T05:12:31;0.60;;;0.60;;
41436;SDS011;27178;49.460;10.850;2023-03-14T05:14:59;0.50;;;0.50;;
41436;SDS011;27178;49.460;10.850;2023-03-14T05:17:29;0.50;;;0.50;;
41436;SDS011;27178;49.460;10.850;2023-03-14T05:19:57;1.13;;;0.63;;
41436;SDS011;27178;49.460;10.850;2023-03-14T05:22:26;0.40;;;0.40;;
41436;SDS011;27178;49.460;10.850;2023-03-14T05:24:54;0.95;;;0.60;;
41436;SDS011;27178;49.460;10.850;2023-03-14T05:27:25;0.70;;;0.70;;
41436;SDS011;27178;49.460;10.850;2023-03-14T05:29:53;0.80;;;0.80;;
41436;SDS011;27178;49.460;10.850;2023-03-14T05:32:22;1.40;;;1.00;;
41436;SDS011;27178;49.460;10.850;2023-03-14T05:34:51;1.88;;;0.90;;
41436;SDS011;27178;49.460;10.850;2023-03-14T05:37:20;2.67;;;0.90;;
41436;SDS011;27178;49.460;10.850;2023-03-14T05:39:48;0.52;;;0.52;;
41436;SDS011;27178;49.460;10.850;2023-03-14T05:42:16;0.60;;;0.60;;
41436;SDS011;27178;49.460;10.850;2023-03-14T05:44:45;0.50;;;0.47;;
41436;SDS011;27178;49.460;10.850;2023-03-14T05:47:13;0.30;;;0.30;;
41436;SDS011;27178;49.460;10.850;2023-03-14T05:49:42;0.22;;;0.20;;
41436;SDS011;27178;49.460;10.850;2023-03-14T05:52:11;0.30;;;0.20;;
41436;SDS011;27178;49.460;10.850;2023-03-14T05:54:39;1.13;;;0.45;;
41436;SDS011;27178;49.460;10.850;2023-03-14T05:57:08;0.38;;;0.38;;
41436;SDS011;27178;49.460;10.850;2023-03-14T05:59:36;1.40;;;0.47;;
41436;SDS011;27178;49.460;10.850;2023-03-14T06:02:04;0.28;;;0.28;;
41436;SDS011;27178;49.460;10.850;2023-03-14T06:04:33;0.75;;;0.50;;
41436;SDS011;27178;49.460;10.850;2023-03-14T06:07:01;0.50;;;0.50;;
41436;SDS011;27178;49.460;10.850;2023-03-14T06:09:31;1.70;;;0.60;;
41436;SDS011;27178;49.460;10.850;2023-03-14T06:11:59;0.50;;;0.50;;
41436;SDS011;27178;49.460;10.850;2023-03-14T06:14:28;0.50;;;0.50;;
41436;SDS011;27178;49.460;10.850;2023-03-14T06:16:56;0.73;;;0.57;;
41436;SDS011;27178;49.460;10.850;2023-03-14T06:19:29;0.40;;;0.40;;
41436;SDS011;27178;49.460;10.850;2023-03-14T06:21:57;0.70;;;0.70;;
41436;SDS011;27178;49.460;10.850;2023-03-14T06:24:26;1.05;;;0.88;;
41436;SDS011;27178;49.460;10.850;2023-03-14T06:26:56;0.75;;;0.50;;
41436;SDS011;27178;49.460;10.850;2023-03-14T06:29:24;1.23;;;0.80;;
41436;SDS011;27178;49.460;10.850;2023-03-14T06:31:52;0.90;;;0.90;;
41436;SDS011;27178;49.460;10.850;2023-03-14T06:34:21;1.85;;;0.80;;
41436;SDS011;27178;49.460;10.850;2023-03-14T06:36:49;0.70;;;0.70;;
41436;SDS011;27178;49.460;10.850;2023-03-14T06:39:17;2.28;;;0.68;;
41436;SDS011;27178;49.460;10.850;2023-03-14T06:41:46;0.77;;;0.50;;
41436;SDS011;27178;49.460;10.850;2023-03-14T06:44:16;0.95;;;0.70;;
41436;SDS011;27178;49.460;10.850;2023-03-14T06:46:44;0.75;;;0.60;;
41436;SDS011;27178;49.460;10.850;2023-03-14T06:49:13;0.80;;;0.80;;
41436;SDS011;27178;49.460;10.850;2023-03-14T06:51:41;0.85;;;0.85;;
41436;SDS011;27178;49.460;10.850;2023-03-14T06:54:09;1.48;;;1.30;;
41436;SDS011;27178;49.460;10.850;2023-03-14T06:56:38;2.05;;;0.88;;
41436;SDS011;27178;49.460;10.850;2023-03-14T06:59:06;1.45;;;1.13;;
41436;SDS011;27178;49.460;10.850;2023-03-14T07:01:36;3.78;;;1.00;;
41436;SDS011;27178;49.460;10.850;2023-03-14T07:04:05;1.48;;;1.38;;
41436;SDS011;27178;49.460;10.850;2023-03-14T07:06:33;1.00;;;0.90;;
41436;SDS011;27178;49.460;10.850;2023-03-14T07:09:02;1.05;;;0.90;;
41436;SDS011;27178;49.460;10.850;2023-03-14T07:11:31;2.47;;;1.50;;
41436;SDS011;27178;49.460;10.850;2023-03-14T07:14:00;2.13;;;1.20;;
41436;SDS011;27178;49.460;10.850;2023-03-14T07:16:28;1.48;;;1.27;;
41436;SDS011;27178;49.460;10.850;2023-03-14T07:19:00;1.50;;;1.00;;
41436;SDS011;27178;49.460;10.850;2023-03-14T07:21:29;1.50;;;1.02;;
41436;SDS011;27178;49.460;10.850;2023-03-14T07:23:59;0.82;;;0.80;;
41436;SDS011;27178;49.460;10.850;2023-03-14T07:26:27;2.10;;;0.95;;
41436;SDS011;27178;49.460;10.850;2023-03-14T07:28:55;1.02;;;0.90;;
41436;SDS011;27178;49.460;10.850;2023-03-14T07:31:24;2.00;;;0.82;;
41436;SDS011;27178;49.460;10.850;2023-03-14T07:33:52;1.90;;;1.00;;
41436;SDS011;27178;49.460;10.850;2023-03-14T07:36:22;3.40;;;1.08;;
41436;SDS011;27178;49.460;10.850;2023-03-14T07:38:51;1.10;;;1.00;;
41436;SDS011;27178;49.460;10.850;2023-03-14T07:41:19;2.03;;;1.35;;
41436;SDS011;27178;49.460;10.850;2023-03-14T07:43:49;1.60;;;0.95;;
41436;SDS011;27178;49.460;10.850;2023-03-14T07:46:17;1.90;;;1.40;;
41436;SDS011;27178;49.460;10.850;2023-03-14T07:48:46;1.35;;;1.20;;
41436;SDS011;27178;49.460;10.850;2023-03-14T07:51:14;1.25;;;1.08;;
41436;SDS011;27178;49.460;10.850;2023-03-14T07:53:44;0.63;;;0.63;;
41436;SDS011;27178;49.460;10.850;2023-03-14T07:56:12;1.90;;;1.02;;
41436;SDS011;27178;49.460;10.850;2023-03-14T07:58:40;1.85;;;1.15;;
41436;SDS011;27178;49.460;10.850;2023-03-14T08:01:09;2.08;;;1.27;;
41436;SDS011;27178;49.460;10.850;2023-03-14T08:03:37;1.50;;;1.20;;
41436;SDS011;27178;49.460;10.850;2023-03-14T08:06:06;1.83;;;1.67;;
41436;SDS011;27178;49.460;10.850;2023-03-14T08:08:35;1.58;;;1.20;;
41436;SDS011;27178;49.460;10.850;2023-03-14T08:11:05;1.00;;;1.00;;
41436;SDS011;27178;49.460;10.850;2023-03-14T08:13:36;2.83;;;1.95;;
41436;SDS011;27178;49.460;10.850;2023-03-14T08:16:05;2.90;;;1.80;;
41436;SDS011;27178;49.460;10.850;2023-03-14T08:18:35;2.95;;;1.70;;
41436;SDS011;27178;49.460;10.850;2023-03-14T08:21:03;4.45;;;1.80;;
41436;SDS011;27178;49.460;10.850;2023-03-14T08:23:32;1.40;;;1.27;;
41436;SDS011;27178;49.460;10.850;2023-03-14T08:26:00;1.35;;;1.10;;
41436;SDS011;27178;49.460;10.850;2023-03-14T08:28:30;1.92;;;1.45;;
41436;SDS011;27178;49.460;10.850;2023-03-14T08:31:00;1.95;;;1.42;;
41436;SDS011;27178;49.460;10.850;2023-03-14T08:33:29;1.60;;;1.50;;
41436;SDS011;27178;49.460;10.850;2023-03-14T08:35:58;1.52;;;1.42;;
41436;SDS011;27178;49.460;10.850;2023-03-14T08:38:28;3.55;;;2.08;;
41436;SDS011;27178;49.460;10.850;2023-03-14T08:40:57;1.70;;;1.60;;
41436;SDS011;27178;49.460;10.850;2023-03-14T08:43:25;1.73;;;1.63;;
41436;SDS011;27178;49.460;10.850;2023-03-14T08:45:58;1.45;;;1.35;;
41436;SDS011;27178;49.460;10.850;2023-03-14T08:48:27;1.27;;;1.17;;
41436;SDS011;27178;49.460;10.850;2023-03-14T08:51:03;2.05;;;1.27;;
41436;SDS011;27178;49.460;10.850;2023-03-14T08:53:32;1.38;;;1.02;;
41436;SDS011;27178;49.460;10.850;2023-03-14T08:56:01;2.60;;;1.00;;
41436;SDS011;27178;49.460;10.850;2023-03-14T08:58:29;2.45;;;1.15;;
41436;SDS011;27178;49.460;10.850;2023-03-14T09:00:59;2.58;;;0.98;;
41436;SDS011;27178;49.460;10.850;2023-03-14T09:03:28;1.17;;;0.85;;
41436;SDS011;27178;49.460;10.850;2023-03-14T09:06:01;2.00;;;1.58;;
41436;SDS011;27178;49.460;10.850;2023-03-14T09:08:31;2.63;;;1.27;;
41436;SDS011;27178;49.460;10.850;2023-03-14T09:11:02;2.05;;;1.13;;
41436;SDS011;27178;49.460;10.850;2023-03-14T09:13:30;2.13;;;1.13;;
41436;SDS011;27178;49.460;10.850;2023-03-14T09:16:00;1.85;;;1.40;;
41436;SDS011;27178;49.460;10.850;2023-03-14T09:18:29;2.35;;;1.17;;
41436;SDS011;27178;49.460;10.850;2023-03-14T09:20:58;2.25;;;1.00;;
41436;SDS011;27178;49.460;10.850;2023-03-14T09:23:26;1.55;;;0.77;;
41436;SDS011;27178;49.460;10.850;2023-03-14T09:25:55;2.20;;;0.90;;
41436;SDS011;27178;49.460;10.850;2023-03-14T09:28:25;1.80;;;0.95;;
41436;SDS011;27178;49.460;10.850;2023-03-14T09:30:53;1.33;;;0.68;;
41436;SDS011;27178;49.460;10.850;2023-03-14T09:33:23;0.65;;;0.57;;
41436;SDS011;27178;49.460;10.850;2023-03-14T09:35:52;1.13;;;0.50;;
41436;SDS011;27178;49.460;10.850;2023-03-14T09:38:20;0.65;;;0.60;;
41436;SDS011;27178;49.460;10.850;2023-03-14T09:40:49;0.85;;;0.40;;
41436;SDS011;27178;49.460;10.850;2023-03-14T09:43:18;1.23;;;0.70;;
41436;SDS011;27178;49.460;10.850;2023-03-14T09:45:48;0.98;;;0.60;;
41436;SDS011;27178;49.460;10.850;2023-03-14T09:48:19;0.52;;;0.52;;
41436;SDS011;27178;49.460;10.850;2023-03-14T09:50:51;0.60;;;0.57;;
41436;SDS011;27178;49.460;10.850;2023-03-14T09:53:22;1.05;;;0.40;;
41436;SDS011;27178;49.460;10.850;2023-03-14T09:55:54;0.80;;;0.50;;
41436;SDS011;27178;49.460;10.850;2023-03-14T09:58:26;0.40;;;0.40;;
41436;SDS011;27178;49.460;10.850;2023-03-14T10:00:55;1.23;;;0.60;;
41436;SDS011;27178;49.460;10.850;2023-03-14T10:03:25;0.90;;;0.75;;
41436;SDS011;27178;49.460;10.850;2023-03-14T10:05:58;0.80;;;0.60;;
41436;SDS011;27178;49.460;10.850;2023-03-14T10:08:27;1.92;;;0.82;;
41436;SDS011;27178;49.460;10.850;2023-03-14T10:10:55;0.60;;;0.30;;
41436;SDS011;27178;49.460;10.850;2023-03-14T10:13:26;1.60;;;0.75;;
41436;SDS011;27178;49.460;10.850;2023-03-14T10:15:57;1.35;;;0.63;;
41436;SDS011;27178;49.460;10.850;2023-03-14T10:18:28;0.77;;;0.47;;
41436;SDS011;27178;49.460;10.850;2023-03-14T10:21:16;2.92;;;0.80;;
41436;SDS011;27178;49.460;10.850;2023-03-14T10:23:48;0.88;;;0.68;;
41436;SDS011;27178;49.460;10.850;2023-03-14T10:26:17;0.75;;;0.75;;
41436;SDS011;27178;49.460;10.850;2023-03-14T10:28:51;1.27;;;0.70;;
41436;SDS011;27178;49.460;10.850;2023-03-14T10:31:23;0.75;;;0.70;;
41436;SDS011;27178;49.460;10.850;2023-03-14T10:34:00;1.48;;;0.98;;
41436;SDS011;27178;49.460;10.850;2023-03-14T10:36:32;1.00;;;0.75;;
41436;SDS011;27178;49.460;10.850;2023-03-14T10:39:15;0.75;;;0.65;;
41436;SDS011;27178;49.460;10.850;2023-03-14T10:41:52;2.08;;;0.70;;
41436;SDS011;27178;49.460;10.850;2023-03-14T10:44:25;1.02;;;0.40;;
41436;SDS011;27178;49.460;10.850;2023-03-14T10:46:56;0.70;;;0.60;;
41436;SDS011;27178;49.460;10.850;2023-03-14T10:49:28;0.50;;;0.50;;
41436;SDS011;27178;49.460;10.850;2023-03-14T10:52:02;0.93;;;0.52;;
41436;SDS011;27178;49.460;10.850;2023-03-14T10:54:41;0.70;;;0.70;;
41436;SDS011;27178;49.460;10.850;2023-03-14T10:57:15;0.60;;;0.55;;
41436;SDS011;27178;49.460;10.850;2023-03-14T10:59:46;1.90;;;0.60;;
41436;SDS011;27178;49.460;10.850;2023-03-14T11:02:20;1.02;;;0.60;;
41436;SDS011;27178;49.460;10.850;2023-03-14T11:05:11;0.85;;;0.38;;
41436;SDS011;27178;49.460;10.850;2023-03-14T11:07:49;0.47;;;0.47;;
41436;SDS011;27178;49.460;10.850;2023-03-14T11:10:22;0.65;;;0.55;;
41436;SDS011;27178;49.460;10.850;2023-03-14T11:13:00;0.50;;;0.50;;
41436;SDS011;27178;49.460;10.850;2023-03-14T11:15:38;0.50;;;0.38;;
41436;SDS011;27178;49.460;10.850;2023-03-14T11:18:19;2.05;;;0.50;;
41436;SDS011;27178;49.460;10.850;2023-03-14T11:21:02;0.40;;;0.40;;
41436;SDS011;27178;49.460;10.850;2023-03-14T11:23:40;0.82;;;0.57;;
41436;SDS011;27178;49.460;10.850;2023-03-14T11:26:18;0.57;;;0.47;;
41436;SDS011;27178;49.460;10.850;2023-03-14T11:28:56;0.30;;;0.30;;
41436;SDS011;27178;49.460;10.850;2023-03-14T11:31:31;0.32;;;0.30;;
41436;SDS011;27178;49.460;10.850;2023-03-14T11:34:04;0.82;;;0.40;;
41436;SDS011;27178;49.460;10.850;2023-03-14T11:36:44;0.65;;;0.65;;
41436;SDS011;27178;49.460;10.850;2023-03-14T11:39:20;0.50;;;0.40;;
41436;SDS011;27178;49.460;10.850;2023-03-14T11:41:51;1.55;;;1.35;;
41436;SDS011;27178;49.460;10.850;2023-03-14T11:44:22;1.10;;;0.90;;
41436;SDS011;27178;49.460;10.850;2023-03-14T11:46:56;1.15;;;0.88;;
41436;SDS011;27178;49.460;10.850;2023-03-14T11:49:31;0.50;;;0.50;;
41436;SDS011;27178;49.460;10.850;2023-03-14T11:52:08;0.40;;;0.40;;
41436;SDS011;27178;49.460;10.850;2023-03-14T11:54:42;0.40;;;0.40;;
41436;SDS011;27178;49.460;10.850;2023-03-14T11:57:17;0.38;;;0.30;;
41436;SDS011;27178;49.460;10.850;2023-03-14T11:59:47;0.22;;;0.22;;
41436;SDS011;27178;49.460;10.850;2023-03-14T12:02:21;0.20;;;0.20;;
41436;SDS011;27178;49.460;10.850;2023-03-14T12:04:58;0.15;;;0.15;;
41436;SDS011;27178;49.460;10.850;2023-03-14T12:07:58;0.50;;;0.38;;
41436;SDS011;27178;49.460;10.850;2023-03-14T12:10:48;0.20;;;0.10;;
41436;SDS011;27178;49.460;10.850;2023-03-14T12:13:19;0.20;;;0.17;;
41436;SDS011;27178;49.460;10.850;2023-03-14T12:15:49;0.22;;;0.22;;
41436;SDS011;27178;49.460;10.850;2023-03-14T12:18:26;0.65;;;0.28;;
41436;SDS011;27178;49.460;10.850;2023-03-14T12:20:56;0.47;;;0.40;;
41436;SDS011;27178;49.460;10.850;2023-03-14T12:23:28;0.20;;;0.20;;
41436;SDS011;27178;49.460;10.850;2023-03-14T12:26:07;0.38;;;0.20;;
41436;SDS011;27178;49.460;10.850;2023-03-14T12:28:48;0.30;;;0.30;;
41436;SDS011;27178;49.460;10.850;2023-03-14T12:31:37;0.20;;;0.20;;
41436;SDS011;27178;49.460;10.850;2023-03-14T12:37:01;0.10;;;0.10;;
41436;SDS011;27178;49.460;10.850;2023-03-14T12:39:40;0.93;;;0.20;;
41436;SDS011;27178;49.460;10.850;2023-03-14T12:42:20;0.70;;;0.32;;
41436;SDS011;27178;49.460;10.850;2023-03-14T12:45:23;0.13;;;0.13;;
41436;SDS011;27178;49.460;10.850;2023-03-14T12:47:54;0.73;;;0.30;;
41436;SDS011;27178;49.460;10.850;2023-03-14T12:50:40;1.70;;;0.40;;
41436;SDS011;27178;49.460;10.850;2023-03-14T12:53:33;0.20;;;0.20;;
41436;SDS011;27178;49.460;10.850;2023-03-14T12:56:25;1.05;;;0.28;;
41436;SDS011;27178;49.460;10.850;2023-03-14T13:02:02;0.13;;;0.13;;
41436;SDS011;27178;49.460;10.850;2023-03-14T13:04:49;0.35;;;0.22;;
41436;SDS011;27178;49.460;10.850;2023-03-14T13:10:29;0.10;;;0.10;;
41436;SDS011;27178;49.460;10.850;2023-03-14T13:13:15;0.35;;;0.20;;
41436;SDS011;27178;49.460;10.850;2023-03-14T13:15:49;0.10;;;0.10;;
41436;SDS011;27178;49.460;10.850;2023-03-14T13:18:26;0.13;;;0.13;;
41436;SDS011;27178;49.460;10.850;2023-03-14T13:20:58;0.40;;;0.40;;
41436;SDS011;27178;49.460;10.850;2023-03-14T13:23:30;0.40;;;0.40;;
41436;SDS011;27178;49.460;10.850;2023-03-14T13:26:02;0.20;;;0.20;;
41436;SDS011;27178;49.460;10.850;2023-03-14T13:28:30;0.30;;;0.30;;
41436;SDS011;27178;49.460;10.850;2023-03-14T13:31:03;1.08;;;1.00;;
41436;SDS011;27178;49.460;10.850;2023-03-14T13:33:33;1.65;;;0.43;;
41436;SDS011;27178;49.460;10.850;2023-03-14T13:36:03;0.60;;;0.60;;
41436;SDS011;27178;49.460;10.850;2023-03-14T13:38:34;0.30;;;0.30;;
41436;SDS011;27178;49.460;10.850;2023-03-14T13:41:04;0.43;;;0.40;;
41436;SDS011;27178;49.460;10.850;2023-03-14T13:43:35;0.50;;;0.50;;
41436;SDS011;27178;49.460;10.850;2023-03-14T13:46:11;0.38;;;0.38;;
41436;SDS011;27178;49.460;10.850;2023-03-14T13:48:43;0.50;;;0.50;;
41436;SDS011;27178;49.460;10.850;2023-03-14T13:51:13;1.25;;;0.90;;
41436;SDS011;27178;49.460;10.850;2023-03-14T13:53:44;0.75;;;0.75;;
41436;SDS011;27178;49.460;10.850;2023-03-14T13:56:13;0.50;;;0.50;;
41436;SDS011;27178;49.460;10.850;2023-03-14T13:58:42;0.60;;;0.60;;
41436;SDS011;27178;49.460;10.850;2023-03-14T14:01:13;0.68;;;0.60;;
41436;SDS011;27178;49.460;10.850;2023-03-14T14:03:44;0.55;;;0.55;;
41436;SDS011;27178;49.460;10.850;2023-03-14T14:06:23;0.70;;;0.70;;
41436;SDS011;27178;49.460;10.850;2023-03-14T14:08:56;0.73;;;0.60;;
41436;SDS011;27178;49.460;10.850;2023-03-14T14:11:37;0.65;;;0.65;;
41436;SDS011;27178;49.460;10.850;2023-03-14T14:14:19;1.00;;;0.88;;
41436;SDS011;27178;49.460;10.850;2023-03-14T14:16:52;1.52;;;0.40;;
41436;SDS011;27178;49.460;10.850;2023-03-14T14:19:21;0.55;;;0.55;;
41436;SDS011;27178;49.460;10.850;2023-03-14T14:21:50;0.50;;;0.50;;
41436;SDS011;27178;49.460;10.850;2023-03-14T14:24:19;0.40;;;0.40;;
41436;SDS011;27178;49.460;10.850;2023-03-14T14:26:51;0.30;;;0.30;;
41436;SDS011;27178;49.460;10.850;2023-03-14T14:29:23;0.90;;;0.85;;
41436;SDS011;27178;49.460;10.850;2023-03-14T14:32:03;0.70;;;0.70;;
41436;SDS011;27178;49.460;10.850;2023-03-14T14:34:39;0.73;;;0.73;;
41436;SDS011;27178;49.460;10.850;2023-03-14T14:37:21;0.60;;;0.60;;
41436;SDS011;27178;49.460;10.850;2023-03-14T14:39:53;0.70;;;0.70;;
41436;SDS011;27178;49.460;10.850;2023-03-14T14:42:25;0.57;;;0.57;;
41436;SDS011;27178;49.460;10.850;2023-03-14T14:44:56;0.63;;;0.63;;
41436;SDS011;27178;49.460;10.850;2023-03-14T14:47:28;0.38;;;0.38;;
41436;SDS011;27178;49.460;10.850;2023-03-14T14:49:58;1.05;;;0.63;;
41436;SDS011;27178;49.460;10.850;2023-03-14T14:52:33;0.30;;;0.30;;
41436;SDS011;27178;49.460;10.850;2023-03-14T14:55:13;0.45;;;0.45;;
41436;SDS011;27178;49.460;10.850;2023-03-14T14:57:49;0.50;;;0.50;;
41436;SDS011;27178;49.460;10.850;2023-03-14T15:00:20;1.98;;;0.75;;
41436;SDS011;27178;49.460;10.850;2023-03-14T15:02:51;1.10;;;1.00;;
41436;SDS011;27178;49.460;10.850;2023-03-14T15:05:22;1.15;;;1.05;;
41436;SDS011;27178;49.460;10.850;2023-03-14T15:07:52;1.20;;;0.90;;
41436;SDS011;27178;49.460;10.850;2023-03-14T15:10:22;1.35;;;1.25;;